Time;durP1;ratioP1;P1;durP2;ratioP2;P2;SDS_P1;SDS_P2;PMS_P1;PMS_P2;Temp;Humidity;BMP_temperature;BMP_pressure;BME280_temperature;BME280_humidity;BME280_pressure;Samples;Min_cycle;Max_cycle;Signal;HPM_P1;HPM_P2
2021/04/29 00:00:18;;;;;;;0.88;0.88;;;;;;;11.93;91.67;98549.59;6312482;22;20514;-90
2021/04/29 00:02:44;;;;;;;0.63;0.63;;;;;;;12.13;91.98;98594.34;6313465;22;20011;-89
2021/04/29 00:05:12;;;;;;;1.38;1.35;;;;;;;11.93;92.06;98582.03;6312093;22;20013;-90
2021/04/29 00:07:37;;;;;;;1.55;1.15;;;;;;;11.93;92.51;98604.19;6312233;22;20435;-91
2021/04/29 00:10:05;;;;;;;1.80;0.95;;;;;;;11.72;93.65;98600.09;6312941;22;20037;-91
2021/04/29 00:12:31;;;;;;;2.15;0.45;;;;;;;11.89;93.32;98611.81;6312975;22;20040;-91
2021/04/29 00:14:56;;;;;;;2.25;1.95;;;;;;;11.88;93.62;98629.66;6338259;22;20007;-91
2021/04/29 00:17:22;;;;;;;3.08;0.98;;;;;;;11.83;92.66;98615.16;6312752;22;20416;-91
2021/04/29 00:19:47;;;;;;;1.17;1.17;;;;;;;11.95;92.43;98621.88;6312488;22;20006;-89
2021/04/29 00:22:13;;;;;;;0.80;0.80;;;;;;;11.90;92.84;98644.59;6312599;22;20438;-90
2021/04/29 00:24:38;;;;;;;0.50;0.50;;;;;;;11.58;94.41;98601.34;6312380;22;20347;-90
2021/04/29 00:27:05;;;;;;;2.78;1.38;;;;;;;11.35;96.44;98594.19;6312293;22;20011;-90
2021/04/29 00:32:17;;;;;;;0.35;0.35;;;;;;;11.62;95.96;98609.56;6342082;22;20354;-90
2021/04/29 00:37:26;;;;;;;1.75;1.30;;;;;;;11.65;97.35;98612.19;6340299;22;20052;-90
2021/04/29 00:39:51;;;;;;;5.80;1.80;;;;;;;11.78;96.32;98628.81;6313149;22;20010;-90
2021/04/29 00:42:17;;;;;;;0.60;0.60;;;;;;;11.91;94.85;98606.63;6313065;22;20029;-92
2021/04/29 00:44:43;;;;;;;1.42;1.33;;;;;;;11.85;94.86;98614.72;6312293;22;20013;-90
2021/04/29 00:47:09;;;;;;;0.45;0.45;;;;;;;11.57;95.20;98599.81;6312045;22;20431;-90
2021/04/29 00:49:35;;;;;;;1.92;1.10;;;;;;;11.60;95.70;98587.84;6312049;22;20030;-90
2021/04/29 00:52:01;;;;;;;0.82;0.82;;;;;;;11.85;96.69;98625.81;6312478;22;19998;-91
2021/04/29 00:54:27;;;;;;;1.63;0.88;;;;;;;11.78;95.53;98599.13;6311961;22;20007;-90
2021/04/29 00:56:52;;;;;;;1.95;1.85;;;;;;;11.88;94.93;98608.28;6311964;22;20087;-90
2021/04/29 00:59:18;;;;;;;12.20;0.82;;;;;;;11.94;93.69;98592.66;6311986;22;20056;-89
2021/04/29 01:01:47;;;;;;;0.57;0.57;;;;;;;11.97;92.51;98615.91;6311603;22;20360;-91
2021/04/29 01:04:23;;;;;;;0.70;0.70;;;;;;;12.06;92.25;98613.22;6311843;22;20030;-91
2021/04/29 01:06:57;;;;;;;0.32;0.32;;;;;;;12.09;91.72;98617.88;6312598;22;20007;-91
2021/04/29 01:09:29;;;;;;;2.13;0.95;;;;;;;12.05;91.09;98606.91;6312647;22;20011;-90
2021/04/29 01:12:00;;;;;;;1.35;1.33;;;;;;;11.90;91.61;98577.38;6312308;22;20030;-91
2021/04/29 01:14:28;;;;;;;0.95;0.95;;;;;;;12.06;91.04;98610.44;6311596;22;20010;-91
2021/04/29 01:16:55;;;;;;;0.73;0.73;;;;;;;12.09;91.78;98631.72;6311878;22;20419;-90
2021/04/29 01:19:24;;;;;;;1.50;1.50;;;;;;;12.10;91.53;98633.25;6311894;22;20011;-91
2021/04/29 01:21:51;;;;;;;2.50;1.50;;;;;;;11.99;91.72;98614.25;6311703;22;20264;-90
2021/04/29 01:24:28;;;;;;;0.50;0.50;;;;;;;11.70;92.30;98597.00;6311572;22;20016;-90
2021/04/29 01:27:01;;;;;;;2.38;1.35;;;;;;;11.92;92.40;98603.41;6311650;22;20078;-91
2021/04/29 01:29:32;;;;;;;0.63;0.63;;;;;;;11.95;92.59;98629.41;6311718;22;20011;-90
2021/04/29 01:31:58;;;;;;;1.10;0.65;;;;;;;11.91;91.90;98629.56;6312210;22;20386;-91
2021/04/29 01:34:27;;;;;;;1.23;1.23;;;;;;;11.68;91.73;98580.09;6311645;22;20007;-91
2021/04/29 01:36:54;;;;;;;11.48;2.15;;;;;;;11.99;92.18;98630.88;6311183;22;20014;-90
2021/04/29 01:39:21;;;;;;;1.27;1.23;;;;;;;12.01;92.16;98616.56;6298973;22;20006;-90
2021/04/29 01:41:53;;;;;;;1.50;1.42;;;;;;;11.87;93.51;98617.84;6337485;22;20323;-93
2021/04/29 01:44:21;;;;;;;1.20;1.20;;;;;;;11.83;93.39;98623.47;6311506;22;20034;-92
2021/04/29 01:46:47;;;;;;;1.45;1.45;;;;;;;11.97;93.06;98638.84;6311404;22;20002;-91
2021/04/29 01:49:13;;;;;;;1.00;0.98;;;;;;;12.04;92.02;98632.28;6312316;22;20042;-90
2021/04/29 01:51:40;;;;;;;0.45;0.45;;;;;;;12.14;91.05;98634.69;6311815;22;20014;-90
2021/04/29 01:54:09;;;;;;;0.85;0.85;;;;;;;12.13;90.62;98624.81;6312039;22;20007;-91
2021/04/29 01:56:36;;;;;;;4.90;1.40;;;;;;;11.99;92.77;98599.63;6311548;22;20011;-90
2021/04/29 01:59:04;;;;;;;0.77;0.77;;;;;;;12.20;94.09;98626.56;6311920;22;20017;-90
2021/04/29 02:01:30;;;;;;;0.55;0.55;;;;;;;11.92;94.36;98578.50;6311815;22;20387;-91
2021/04/29 02:03:56;;;;;;;0.70;0.70;;;;;;;12.07;95.51;98621.06;6311504;22;20053;-90
2021/04/29 02:06:22;;;;;;;1.13;1.13;;;;;;;12.07;97.65;98612.00;6311318;22;20090;-92
2021/04/29 02:08:48;;;;;;;0.68;0.68;;;;;;;12.05;97.80;98622.75;6311522;22;20006;-90
2021/04/29 02:11:14;;;;;;;1.45;1.45;;;;;;;12.10;98.16;98624.94;6311238;22;20022;-91
2021/04/29 02:13:42;;;;;;;0.82;0.82;;;;;;;12.13;98.68;98629.59;6311005;22;20002;-92
2021/04/29 02:16:22;;;;;;;0.47;0.47;;;;;;;12.11;98.16;98613.44;6311390;22;20007;-91
2021/04/29 02:18:50;;;;;;;0.90;0.90;;;;;;;12.17;97.79;98633.81;6311987;22;20034;-90
2021/04/29 02:21:19;;;;;;;1.48;1.38;;;;;;;12.16;97.93;98618.41;6311670;22;20011;-90
2021/04/29 02:23:47;;;;;;;1.65;1.02;;;;;;;11.98;98.49;98596.09;6311371;22;20011;-91
2021/04/29 02:26:14;;;;;;;1.25;0.88;;;;;;;12.16;97.95;98626.72;6311295;22;20003;-89
2021/04/29 02:28:42;;;;;;;2.78;2.22;;;;;;;12.11;97.59;98599.59;6339230;22;20062;-89
2021/04/29 02:31:09;;;;;;;0.85;0.85;;;;;;;12.10;97.79;98597.25;6311274;22;20093;-90
2021/04/29 02:33:35;;;;;;;0.90;0.70;;;;;;;12.23;97.36;98617.38;6311842;22;20081;-91
2021/04/29 02:36:01;;;;;;;0.80;0.80;;;;;;;12.13;97.35;98610.97;6311053;22;20092;-91
2021/04/29 02:38:28;;;;;;;0.57;0.57;;;;;;;12.16;97.51;98621.16;6312153;22;20003;-91
2021/04/29 02:40:54;;;;;;;0.60;0.60;;;;;;;12.17;97.36;98625.50;6311537;22;20006;-90
2021/04/29 02:43:20;;;;;;;0.70;0.70;;;;;;;12.12;97.28;98634.34;6311382;22;20006;-90
2021/04/29 02:45:46;;;;;;;1.42;1.30;;;;;;;11.80;98.36;98629.13;6311434;22;20492;-91
2021/04/29 02:48:12;;;;;;;0.65;0.65;;;;;;;11.59;99.91;98627.81;6311208;22;20499;-91
2021/04/29 02:50:43;;;;;;;1.08;1.05;;;;;;;11.41;99.22;98609.00;6311371;22;20013;-89
2021/04/29 02:53:17;;;;;;;0.80;0.80;;;;;;;11.32;99.08;98611.69;6311465;22;20009;-90
2021/04/29 02:55:44;;;;;;;0.82;0.82;;;;;;;11.54;98.75;98624.81;6311954;22;20006;-93
2021/04/29 02:58:10;;;;;;;0.85;0.85;;;;;;;11.57;97.91;98618.41;6311989;22;20033;-92
2021/04/29 03:00:38;;;;;;;0.73;0.73;;;;;;;11.65;97.24;98628.00;6311353;22;20010;-92
2021/04/29 03:03:06;;;;;;;0.43;0.43;;;;;;;11.52;97.25;98599.59;6311383;22;20010;-92
2021/04/29 03:05:31;;;;;;;;;;;;;;;11.83;96.20;98628.22;6312198;22;19999;-90
2021/04/29 03:07:57;;;;;;;1.02;1.02;;;;;;;11.80;95.93;98635.44;6311260;22;19942;-90
2021/04/29 03:10:23;;;;;;;0.40;0.40;;;;;;;11.61;96.22;98606.00;6311551;22;20469;-91
2021/04/29 03:12:49;;;;;;;1.50;1.30;;;;;;;11.66;96.62;98610.19;6311313;22;20007;-91
2021/04/29 03:15:15;;;;;;;1.10;1.05;;;;;;;11.93;95.36;98654.03;6312063;22;20064;-90
2021/04/29 03:17:40;;;;;;;1.63;1.52;;;;;;;11.91;95.15;98646.16;6311166;22;20086;-90
2021/04/29 03:20:07;;;;;;;1.20;1.13;;;;;;;11.83;95.04;98622.69;6311721;22;20043;-90
2021/04/29 03:22:33;;;;;;;4.15;1.75;;;;;;;11.88;95.47;98647.03;6311207;22;20007;-90
2021/04/29 03:24:59;;;;;;;0.65;0.65;;;;;;;11.69;96.35;98623.91;6312903;22;20091;-90
2021/04/29 03:27:26;;;;;;;1.23;1.23;;;;;;;11.95;95.70;98646.81;6312924;22;20086;-91
2021/04/29 03:29:52;;;;;;;1.00;1.00;;;;;;;11.96;95.53;98651.13;6313324;22;20035;-91
2021/04/29 03:32:18;;;;;;;1.45;1.38;;;;;;;11.95;95.64;98660.66;6313049;22;20011;-91
2021/04/29 03:34:44;;;;;;;2.22;2.03;;;;;;;11.88;94.51;98643.50;6312892;22;20006;-92
2021/04/29 03:37:11;;;;;;;1.75;1.05;;;;;;;11.94;93.68;98642.47;6312580;22;20019;-90
2021/04/29 03:39:37;;;;;;;1.45;1.40;;;;;;;11.95;93.02;98644.03;6313044;22;20064;-91
2021/04/29 03:42:05;;;;;;;0.73;0.73;;;;;;;12.14;92.38;98664.38;6313009;22;20033;-90
2021/04/29 03:44:30;;;;;;;;;;;;;;;12.10;92.74;98658.97;6340718;22;20003;-89
2021/04/29 03:46:56;;;;;;;2.17;1.27;;;;;;;11.98;93.49;98665.31;6312961;22;19917;-92
2021/04/29 03:49:21;;;;;;;1.20;1.10;;;;;;;11.99;92.67;98650.25;6312873;22;20007;-88
2021/04/29 03:51:47;;;;;;;12.85;1.02;;;;;;;12.20;92.40;98668.13;6314042;22;20014;-90
2021/04/29 03:54:12;;;;;;;0.88;0.88;;;;;;;12.12;93.51;98672.34;6312915;22;20007;-90
2021/04/29 03:56:37;;;;;;;0.77;0.77;;;;;;;12.08;94.64;98650.31;6312585;22;20351;-89
2021/04/29 03:59:03;;;;;;;1.08;1.02;;;;;;;12.03;95.50;98663.97;6339525;22;20075;-92
2021/04/29 04:01:28;;;;;;;2.35;2.20;;;;;;;12.19;94.98;98661.81;6312461;22;20075;-89
2021/04/29 04:03:54;;;;;;;1.15;1.05;;;;;;;12.19;94.59;98639.63;6312506;22;20003;-90
2021/04/29 04:06:19;;;;;;;0.50;0.50;;;;;;;12.40;94.17;98665.06;6313422;22;20010;-89
2021/04/29 04:08:45;;;;;;;1.67;1.58;;;;;;;12.08;95.04;98641.22;6312436;22;20085;-90
2021/04/29 04:11:10;;;;;;;1.55;1.30;;;;;;;12.52;94.04;98673.31;6312516;22;20033;-89
2021/04/29 04:13:35;;;;;;;0.47;0.47;;;;;;;12.37;94.75;98674.25;6312685;22;20026;-88
2021/04/29 04:16:02;;;;;;;0.70;0.70;;;;;;;12.46;95.02;98677.13;6313435;22;20006;-88
2021/04/29 04:18:28;;;;;;;0.77;0.77;;;;;;;12.62;93.50;98663.06;6312887;22;19998;-90
2021/04/29 04:20:53;;;;;;;1.25;1.25;;;;;;;12.56;93.99;98684.28;6312251;22;20448;-91
2021/04/29 04:23:19;;;;;;;0.40;0.40;;;;;;;12.29;94.72;98667.44;6312371;22;20002;-89
2021/04/29 04:25:44;;;;;;;43.38;1.08;;;;;;;12.50;94.52;98680.53;6312506;22;20431;-91
2021/04/29 04:28:10;;;;;;;1.90;1.80;;;;;;;12.80;93.16;98674.28;6312572;22;20006;-90
2021/04/29 04:30:35;;;;;;;0.95;0.95;;;;;;;12.75;92.08;98640.84;6312115;22;20006;-91
2021/04/29 04:33:01;;;;;;;0.68;0.68;;;;;;;13.20;90.94;98679.19;6312829;22;20018;-90
2021/04/29 04:35:26;;;;;;;0.70;0.70;;;;;;;12.98;91.56;98643.91;6311259;22;20022;-89
2021/04/29 04:37:52;;;;;;;4.85;1.15;;;;;;;13.01;91.41;98687.38;6312532;22;20003;-91
2021/04/29 04:40:17;;;;;;;13.00;1.13;;;;;;;13.30;91.26;98698.19;6312099;22;20010;-88
2021/04/29 04:42:43;;;;;;;1.90;1.80;;;;;;;13.39;89.85;98673.25;6312518;22;20007;-87
2021/04/29 04:45:10;;;;;;;4.32;1.90;;;;;;;13.72;88.26;98675.53;6311996;22;20002;-87
2021/04/29 04:47:36;;;;;;;10.63;1.97;;;;;;;13.97;87.50;98682.88;6311787;22;19999;-86
2021/04/29 04:50:02;;;;;;;2.75;1.15;;;;;;;14.17;86.40;98681.19;6310781;22;20017;-87
2021/04/29 04:52:31;;;;;;;1.10;1.10;;;;;;;14.51;83.29;98691.28;6311587;22;19999;-87
2021/04/29 04:54:57;;;;;;;2.33;1.00;;;;;;;14.62;82.28;98699.16;6311381;22;20017;-86
2021/04/29 04:57:22;;;;;;;0.47;0.47;;;;;;;14.84;80.90;98687.88;6311561;22;20007;-87
2021/04/29 04:59:48;;;;;;;0.75;0.75;;;;;;;14.80;79.82;98648.31;6311435;22;20011;-86
2021/04/29 05:02:14;;;;;;;8.70;2.83;;;;;;;14.78;79.19;98675.81;6312079;22;20038;-86
2021/04/29 05:04:39;;;;;;;1.77;1.55;;;;;;;14.84;81.21;98704.56;6311451;22;20400;-87
2021/04/29 05:07:05;;;;;;;2.38;2.20;;;;;;;14.92;79.36;98662.06;6336975;22;20081;-86
2021/04/29 05:09:31;;;;;;;1.92;1.83;;;;;;;15.42;78.23;98676.47;6311400;22;20011;-85
2021/04/29 05:11:57;;;;;;;6.70;1.77;;;;;;;15.80;75.68;98695.34;6311309;22;20021;-87
2021/04/29 05:14:24;;;;;;;0.95;0.95;;;;;;;15.17;77.70;98688.75;6311449;22;20011;-87
2021/04/29 05:16:50;;;;;;;1.88;1.48;;;;;;;15.93;76.52;98715.41;6311454;22;20068;-86
2021/04/29 05:19:15;;;;;;;2.28;2.08;;;;;;;15.98;74.83;98708.41;6311463;22;20010;-86
2021/04/29 05:21:41;;;;;;;11.48;3.40;;;;;;;15.78;76.54;98704.19;6337332;22;20423;-87
2021/04/29 05:24:07;;;;;;;5.57;1.58;;;;;;;14.60;80.74;98702.41;6311546;22;20156;-86
2021/04/29 05:26:33;;;;;;;1.33;1.33;;;;;;;14.03;83.73;98709.59;6311321;22;20545;-88
2021/04/29 05:28:59;;;;;;;1.67;1.58;;;;;;;15.26;82.07;98702.63;6310945;22;20034;-88
2021/04/29 05:31:25;;;;;;;1.98;1.42;;;;;;;15.75;76.19;98719.03;6338815;22;19999;-86
2021/04/29 05:33:50;;;;;;;1.55;1.30;;;;;;;15.99;76.10;98696.00;6311119;22;20007;-85
2021/04/29 05:36:16;;;;;;;3.08;1.27;;;;;;;16.38;74.63;98697.63;6311075;22;20413;-86
2021/04/29 05:38:41;;;;;;;1.67;1.58;;;;;;;16.40;74.29;98697.13;6311223;22;20007;-85
2021/04/29 05:41:07;;;;;;;1.73;1.63;;;;;;;17.29;71.22;98693.28;6311075;22;20006;-83
2021/04/29 05:43:33;;;;;;;1.00;1.00;;;;;;;19.24;65.61;98710.63;6310823;22;20007;-84
2021/04/29 05:45:58;;;;;;;0.43;0.43;;;;;;;21.97;56.74;98708.25;6310877;22;20013;-84
2021/04/29 05:48:24;;;;;;;1.27;1.17;;;;;;;24.37;50.26;98707.53;6338537;22;20083;-83
2021/04/29 05:50:49;;;;;;;0.68;0.68;;;;;;;24.22;47.81;98674.84;6310765;22;20014;-84
2021/04/29 05:53:15;;;;;;;1.00;0.80;;;;;;;22.79;52.19;98705.69;6310988;22;20002;-86
2021/04/29 05:55:40;;;;;;;2.53;1.58;;;;;;;25.54;45.70;98707.47;6337164;22;20038;-88
2021/04/29 05:58:06;;;;;;;1.75;0.90;;;;;;;24.47;45.94;98717.19;6311126;22;20014;-88
2021/04/29 06:00:31;;;;;;;4.82;1.58;;;;;;;27.07;40.79;98713.34;6311410;22;20058;-85
2021/04/29 06:02:57;;;;;;;2.67;0.65;;;;;;;28.25;37.86;98720.56;6311104;22;20488;-87
2021/04/29 06:05:23;;;;;;;0.73;0.73;;;;;;;28.84;34.74;98704.44;6312076;22;20017;-90
2021/04/29 06:07:59;;;;;;;0.65;0.65;;;;;;;27.31;36.92;98703.78;6311349;22;20427;-89
2021/04/29 06:10:25;;;;;;;0.95;0.85;;;;;;;27.60;36.91;98684.81;6311666;22;20014;-90
2021/04/29 06:12:52;;;;;;;3.38;0.90;;;;;;;28.35;35.27;98710.22;6310966;22;20003;-87
2021/04/29 06:15:18;;;;;;;4.63;1.88;;;;;;;28.71;34.40;98690.31;6311696;22;20003;-87
2021/04/29 06:17:44;;;;;;;1.05;0.95;;;;;;;29.67;33.29;98721.00;6310887;22;20002;-88
2021/04/29 06:20:12;;;;;;;0.98;0.85;;;;;;;29.96;31.92;98667.47;6338474;22;20347;-88
2021/04/29 06:22:37;;;;;;;1.15;1.02;;;;;;;30.27;31.85;98697.44;6310863;22;20426;-88
2021/04/29 06:25:05;;;;;;;3.92;1.63;;;;;;;29.20;31.83;98652.38;6310810;22;20007;-86
2021/04/29 06:27:30;;;;;;;1.55;1.45;;;;;;;27.32;36.24;98697.56;6311003;22;20007;-87
2021/04/29 06:29:55;;;;;;;6.88;2.55;;;;;;;28.63;34.56;98684.59;6311058;22;19999;-87
2021/04/29 06:32:21;;;;;;;1.27;1.05;;;;;;;29.74;32.20;98714.56;6311206;22;20010;-87
2021/04/29 06:34:47;;;;;;;0.90;0.82;;;;;;;29.74;32.06;98706.00;6311156;22;20017;-87
2021/04/29 06:37:12;;;;;;;5.13;1.33;;;;;;;28.93;33.57;98706.75;6310668;22;20019;-88
2021/04/29 06:39:38;;;;;;;0.52;0.52;;;;;;;29.01;33.42;98690.47;6312242;22;20014;-89
2021/04/29 06:42:03;;;;;;;0.60;0.60;;;;;;;25.96;39.21;98718.38;6337265;22;20007;-90
2021/04/29 06:44:30;;;;;;;1.25;1.25;;;;;;;26.65;38.55;98707.53;6311418;22;20007;-89
2021/04/29 06:46:55;;;;;;;1.83;1.40;;;;;;;26.72;39.35;98723.13;6311445;22;20003;-89
2021/04/29 06:49:21;;;;;;;0.57;0.57;;;;;;;27.27;36.29;98700.53;6311494;22;20324;-91
2021/04/29 06:51:46;;;;;;;1.05;0.95;;;;;;;28.89;34.33;98712.03;6311502;22;20014;-91
2021/04/29 06:54:37;;;;;;;1.02;1.00;;;;;;;27.10;37.83;98720.78;6311755;22;20007;-90
2021/04/29 06:57:03;;;;;;;1.02;0.68;;;;;;;26.93;37.21;98701.31;6311190;22;20059;-89
2021/04/29 06:59:28;;;;;;;0.88;0.68;;;;;;;26.63;37.89;98712.22;6312569;22;20411;-88
2021/04/29 07:01:54;;;;;;;3.50;1.48;;;;;;;27.63;36.20;98689.38;6313079;22;20003;-87
2021/04/29 07:04:19;;;;;;;0.93;0.90;;;;;;;28.73;35.15;98699.84;6312952;22;20078;-87
2021/04/29 07:06:45;;;;;;;1.60;1.42;;;;;;;28.52;34.52;98712.59;6312949;22;20032;-87
2021/04/29 07:09:11;;;;;;;0.65;0.65;;;;;;;24.53;41.72;98718.66;6313625;22;20393;-87
2021/04/29 07:11:36;;;;;;;5.03;1.48;;;;;;;25.79;39.99;98713.78;6313904;22;20072;-87
2021/04/29 07:14:02;;;;;;;1.55;0.90;;;;;;;24.30;42.16;98670.13;6313628;22;20013;-88
2021/04/29 07:16:27;;;;;;;3.13;2.03;;;;;;;27.29;39.54;98697.91;6312785;22;20346;-89
2021/04/29 07:18:53;;;;;;;2.33;1.20;;;;;;;28.12;36.24;98687.31;6313275;22;20010;-89
2021/04/29 07:21:18;;;;;;;0.55;0.55;;;;;;;28.28;35.62;98719.44;6312925;22;20426;-87
2021/04/29 07:23:48;;;;;;;0.70;0.70;;;;;;;24.25;42.86;98706.88;6313115;22;20007;-89
2021/04/29 07:26:15;;;;;;;2.10;1.48;;;;;;;22.89;46.17;98679.53;6313150;22;20086;-88
2021/04/29 07:28:41;;;;;;;0.50;0.50;;;;;;;22.58;47.46;98677.84;6312810;22;20078;-90
2021/04/29 07:31:07;;;;;;;0.95;0.90;;;;;;;23.33;45.78;98695.34;6312982;22;20010;-88
2021/04/29 07:33:32;;;;;;;0.88;0.80;;;;;;;24.67;42.54;98680.69;6313071;22;20453;-90
2021/04/29 07:35:58;;;;;;;3.40;1.85;;;;;;;24.73;43.03;98720.19;6337707;22;20034;-89
2021/04/29 07:38:23;;;;;;;2.58;1.25;;;;;;;24.88;41.75;98683.00;6311984;22;20098;-91
2021/04/29 07:40:49;;;;;;;2.17;1.13;;;;;;;26.23;39.83;98708.59;6320764;22;20007;-88
2021/04/29 07:43:14;;;;;;;0.93;0.60;;;;;;;26.25;39.16;98689.03;6313186;22;20013;-90
2021/04/29 07:45:40;;;;;;;2.67;1.77;;;;;;;26.24;38.62;98716.59;6313730;22;20060;-91
2021/04/29 07:48:11;;;;;;;1.35;1.17;;;;;;;25.38;41.40;98728.28;6313785;22;20003;-89
2021/04/29 07:53:58;;;;;;;0.93;0.90;;;;;;;24.73;41.65;98669.31;6340066;22;20010;-89
2021/04/29 07:56:23;;;;;;;4.72;0.85;;;;;;;25.53;41.41;98722.94;6312981;22;20010;-88
2021/04/29 09:31:52;;;;;;;2.30;2.10;;;;;;;18.89;63.65;98676.44;5120654;27;989544;-75
2021/04/29 09:34:18;;;;;;;2.05;1.85;;;;;;;19.22;64.44;98659.97;5130552;28;20309;-75
2021/04/29 09:36:44;;;;;;;8.00;3.10;;;;;;;19.30;62.90;98663.81;5114746;28;20028;-76
2021/04/29 09:39:17;;;;;;;1.75;1.65;;;;;;;18.66;63.20;98637.00;5109800;28;20077;-77
2021/04/29 09:41:50;;;;;;;1.88;1.60;;;;;;;19.05;64.40;98637.38;5110582;28;20126;-73
2021/04/29 09:44:21;;;;;;;0.70;0.70;;;;;;;19.28;62.57;98668.41;5109278;28;20023;-76
2021/04/29 09:46:52;;;;;;;5.38;1.98;;;;;;;19.04;62.15;98635.88;5109482;28;20059;-75
2021/04/29 09:49:26;;;;;;;1.55;1.42;;;;;;;19.13;64.49;98657.31;5109588;28;20020;-72
2021/04/29 09:51:54;;;;;;;4.03;1.67;;;;;;;19.03;64.89;98641.97;5109253;28;20032;-73
2021/04/29 09:54:26;;;;;;;3.55;2.63;;;;;;;19.20;62.71;98628.88;5109134;28;20077;-74
2021/04/29 09:56:58;;;;;;;2.38;2.10;;;;;;;19.36;62.82;98645.03;5109030;28;20067;-73
2021/04/29 09:59:25;;;;;;;2.40;1.85;;;;;;;19.73;63.21;98663.91;5109257;28;20119;-73
2021/04/29 10:01:53;;;;;;;1.92;1.77;;;;;;;19.76;62.79;98669.31;5108873;28;20031;-74
2021/04/29 10:04:18;;;;;;;7.03;2.60;;;;;;;19.70;62.13;98667.75;5109347;28;20058;-77
2021/04/29 10:06:46;;;;;;;4.38;2.42;;;;;;;19.44;62.76;98628.53;5110025;28;20090;-76
2021/04/29 10:09:13;;;;;;;0.80;0.80;;;;;;;19.52;62.04;98624.03;5109303;28;20051;-77
2021/04/29 10:11:40;;;;;;;4.18;2.22;;;;;;;19.54;64.05;98631.94;5109324;28;20027;-78
2021/04/29 10:14:08;;;;;;;2.55;2.17;;;;;;;19.43;63.29;98629.81;5109891;28;20039;-77
2021/04/29 10:16:35;;;;;;;2.42;1.88;;;;;;;19.57;62.92;98658.97;5106192;28;20023;-77
2021/04/29 10:19:01;;;;;;;2.58;2.13;;;;;;;19.49;63.31;98641.84;5108585;28;20039;-79
2021/04/29 10:21:27;;;;;;;9.98;3.75;;;;;;;19.62;63.99;98653.41;5108727;28;20020;-79
2021/04/29 10:23:52;;;;;;;2.63;2.28;;;;;;;19.49;63.77;98617.41;5108791;28;20023;-77
2021/04/29 10:26:30;;;;;;;1.65;1.55;;;;;;;19.80;62.47;98621.41;5109373;28;20034;-81
2021/04/29 10:29:01;;;;;;;5.80;2.75;;;;;;;19.57;63.84;98611.34;5108990;28;20384;-75
2021/04/29 10:31:30;;;;;;;1.85;1.70;;;;;;;19.79;63.43;98637.47;5108310;28;20113;-75
2021/04/29 10:34:18;;;;;;;2.65;1.38;;;;;;;20.07;63.77;98654.47;5108313;28;20028;-76
2021/04/29 10:36:44;;;;;;;;;;;;;;;19.99;62.73;98639.38;5108931;28;20123;-76
2021/04/29 10:39:14;;;;;;;12.32;3.75;;;;;;;19.69;64.13;98610.13;5108094;28;19952;-75
2021/04/29 10:41:49;;;;;;;1.15;1.15;;;;;;;19.70;62.93;98623.66;5103375;28;20085;-78
2021/04/29 10:44:17;;;;;;;2.00;1.58;;;;;;;19.67;63.81;98643.50;5094866;28;20036;-78
2021/04/29 10:46:44;;;;;;;2.75;1.75;;;;;;;19.42;64.23;98617.03;5094968;28;20052;-76
2021/04/29 10:49:13;;;;;;;1.83;1.65;;;;;;;19.48;63.68;98620.69;5095202;28;20039;-78
2021/04/29 10:51:41;;;;;;;4.15;3.63;;;;;;;19.66;64.56;98631.50;5094689;28;20028;-76
2021/04/29 10:54:21;;;;;;;2.63;2.42;;;;;;;19.52;65.08;98615.63;5094801;28;20111;-77
2021/04/29 10:57:00;;;;;;;2.15;2.00;;;;;;;19.15;64.62;98584.00;5094999;28;20024;-75
2021/04/29 10:59:41;;;;;;;8.60;2.15;;;;;;;19.73;66.19;98630.28;5094655;28;20480;-79
2021/04/29 11:02:20;;;;;;;2.65;2.45;;;;;;;19.63;65.64;98642.97;5094482;28;20031;-75
2021/04/29 11:04:45;;;;;;;1.90;1.75;;;;;;;19.54;64.04;98607.47;5094433;28;20039;-74
2021/04/29 11:07:12;;;;;;;3.22;2.25;;;;;;;19.53;64.16;98599.59;5094133;28;20024;-76
2021/04/29 11:09:38;;;;;;;4.70;3.10;;;;;;;19.57;64.97;98580.50;5093955;28;20038;-77
2021/04/29 11:12:06;;;;;;;1.58;1.50;;;;;;;19.55;64.31;98583.81;5093873;28;20038;-77
2021/04/29 11:14:41;;;;;;;2.22;2.05;;;;;;;19.62;65.25;98602.19;5094445;28;20035;-75
2021/04/29 11:17:18;;;;;;;3.80;2.15;;;;;;;19.94;64.29;98606.44;5093408;28;20040;-76
2021/04/29 11:20:03;;;;;;;4.85;3.13;;;;;;;20.07;64.12;98606.00;5094114;28;20036;-77
2021/04/29 11:22:34;;;;;;;4.80;3.00;;;;;;;20.12;63.77;98605.25;5093263;28;20036;-77
2021/04/29 11:25:01;;;;;;;3.58;3.17;;;;;;;20.07;62.44;98578.72;5093869;28;20123;-75
2021/04/29 11:27:34;;;;;;;2.25;2.08;;;;;;;20.10;63.74;98588.94;5094151;28;20028;-76
2021/04/29 11:30:06;;;;;;;2.90;2.72;;;;;;;20.40;65.41;98583.69;5093590;28;20035;-77
2021/04/29 11:32:34;;;;;;;2.85;2.45;;;;;;;20.42;62.11;98594.41;5094344;28;20399;-77
2021/04/29 11:35:02;;;;;;;4.32;2.72;;;;;;;20.39;62.87;98578.59;5093774;28;20085;-76
2021/04/29 11:37:39;;;;;;;2.42;2.25;;;;;;;20.22;62.95;98567.28;5093868;28;20385;-77
2021/04/29 11:40:05;;;;;;;4.25;2.95;;;;;;;20.11;61.32;98564.44;5093403;28;20115;-76
2021/04/29 11:42:33;;;;;;;4.38;3.22;;;;;;;20.16;62.44;98589.72;5093677;28;20189;-78
2021/04/29 11:45:26;;;;;;;1.65;1.55;;;;;;;20.30;63.03;98599.97;5093462;28;20027;-78
2021/04/29 11:48:00;;;;;;;3.40;2.28;;;;;;;20.15;61.93;98546.09;5089500;28;20024;-78
2021/04/29 11:50:33;;;;;;;2.15;2.03;;;;;;;20.39;61.01;98568.13;5093353;28;20502;-77
2021/04/29 11:53:08;;;;;;;2.80;2.60;;;;;;;20.46;61.74;98586.50;5092946;28;20067;-76
2021/04/29 11:55:36;;;;;;;1.30;1.17;;;;;;;20.51;61.84;98582.94;5093004;28;20074;-78
2021/04/29 11:58:06;;;;;;;1.10;1.05;;;;;;;20.46;60.44;98575.28;5094100;28;20564;-76
2021/04/29 12:00:38;;;;;;;2.08;1.98;;;;;;;20.26;61.71;98545.34;5093537;28;20072;-77
2021/04/29 12:03:08;;;;;;;3.08;2.78;;;;;;;20.44;60.99;98552.56;5093581;28;20028;-77
2021/04/29 12:05:34;;;;;;;2.22;2.03;;;;;;;20.57;60.97;98580.91;5093591;28;20479;-77
2021/04/29 12:08:00;;;;;;;4.70;1.85;;;;;;;20.75;62.65;98583.25;5094108;28;20024;-76
2021/04/29 12:10:40;;;;;;;1.52;1.42;;;;;;;20.82;60.34;98587.59;5092820;28;20090;-78
2021/04/29 12:13:05;;;;;;;1.92;1.83;;;;;;;20.70;61.08;98576.34;5092930;28;20063;-80
2021/04/29 12:15:32;;;;;;;2.13;2.03;;;;;;;20.65;61.58;98565.13;5093043;28;20024;-77
2021/04/29 12:17:59;;;;;;;6.03;2.55;;;;;;;20.72;62.16;98559.00;5092292;28;20060;-76
2021/04/29 12:20:25;;;;;;;2.43;2.30;;;;;;;20.82;59.54;98568.72;5093094;28;20020;-79
2021/04/29 12:23:14;;;;;;;2.88;2.45;;;;;;;20.93;60.37;98568.72;5093104;28;20039;-77
2021/04/29 12:25:40;;;;;;;1.42;1.40;;;;;;;20.80;60.93;98545.22;5046721;28;20040;-79
2021/04/29 12:28:17;;;;;;;6.35;3.67;;;;;;;20.77;58.99;98526.59;5093056;28;20479;-79
2021/04/29 12:30:43;;;;;;;3.83;3.53;;;;;;;20.98;60.57;98562.31;5093002;28;20047;-79
2021/04/29 12:33:20;;;;;;;1.15;1.15;;;;;;;20.81;58.96;98533.47;5092920;28;20066;-77
2021/04/29 12:35:46;;;;;;;2.67;2.47;;;;;;;20.90;59.90;98540.88;5093431;28;20028;-77
2021/04/29 12:38:13;;;;;;;3.55;3.03;;;;;;;21.10;59.28;98551.84;5092958;28;20123;-77
2021/04/29 12:40:39;;;;;;;2.25;1.83;;;;;;;21.11;58.06;98533.72;5092806;28;20028;-76
2021/04/29 12:43:15;;;;;;;2.92;2.60;;;;;;;21.38;57.78;98537.81;5092545;28;20066;-77
2021/04/29 12:45:49;;;;;;;3.72;2.70;;;;;;;21.08;56.91;98501.81;5093358;28;20028;-77
2021/04/29 12:48:47;;;;;;;2.95;2.13;;;;;;;21.05;57.78;98528.09;5092498;28;20025;-76
2021/04/29 12:51:15;;;;;;;1.88;1.77;;;;;;;20.75;58.40;98467.34;5091985;28;20063;-76
2021/04/29 12:53:56;;;;;;;3.72;2.97;;;;;;;21.17;59.29;98503.59;5092730;28;20034;-79
2021/04/29 12:56:30;;;;;;;1.67;1.55;;;;;;;21.46;55.95;98527.53;5092809;28;20024;-77
2021/04/29 12:58:56;;;;;;;1.27;1.27;;;;;;;21.32;58.82;98492.09;5092018;28;20020;-79
2021/04/29 13:01:24;;;;;;;4.93;3.33;;;;;;;21.68;58.11;98524.69;5092385;28;20031;-78
2021/04/29 13:03:51;;;;;;;3.85;3.25;;;;;;;21.29;56.09;98471.38;5092443;28;20024;-75
2021/04/29 13:06:17;;;;;;;1.63;1.52;;;;;;;21.66;58.01;98518.81;5091759;28;20039;-78
2021/04/29 13:08:51;;;;;;;3.65;2.45;;;;;;;21.35;54.54;98489.00;5092455;28;20027;-78
2021/04/29 13:11:30;;;;;;;2.30;2.05;;;;;;;21.31;54.09;98496.94;5092156;28;20472;-78
2021/04/29 13:14:08;;;;;;;1.58;1.48;;;;;;;21.39;55.48;98497.19;5092085;28;20027;-77
2021/04/29 13:16:35;;;;;;;2.28;1.88;;;;;;;21.45;55.90;98479.03;5093166;28;20024;-77
2021/04/29 13:19:00;;;;;;;2.80;2.58;;;;;;;21.78;55.52;98511.09;5092771;28;20457;-77